createdAt,value
2019-06-10T00:00:28.004Z,101133.06
2019-06-10T00:02:04.208Z,101135.68
2019-06-10T00:03:42.178Z,101125.52
2019-06-10T00:05:17.734Z,101130.15
2019-06-10T00:06:52.399Z,101133.48
2019-06-10T00:08:27.641Z,101133.38
2019-06-10T00:10:04.057Z,101131.86
2019-06-10T00:11:41.095Z,101125.72
2019-06-10T00:13:15.929Z,101124.50
2019-06-10T00:14:51.142Z,101123.40
2019-06-10T00:16:25.813Z,101123.78
2019-06-10T00:18:18.993Z,101119.88
2019-06-10T00:19:37.454Z,101117.52
2019-06-10T00:21:12.692Z,101113.66
2019-06-10T00:22:47.334Z,101111.40
2019-06-10T00:24:22.870Z,101108.76
2019-06-10T00:25:57.926Z,101110.25
2019-06-10T00:27:33.313Z,101110.96
2019-06-10T00:29:09.689Z,101103.97
2019-06-10T00:30:44.880Z,101101.77
2019-06-10T00:32:21.461Z,101095.33
2019-06-10T00:33:56.493Z,101091.36
2019-06-10T00:35:31.580Z,101090.95
2019-06-10T00:37:09.219Z,101089.12
2019-06-10T00:38:43.322Z,101091.97
2019-06-10T00:40:21.275Z,101090.15
2019-06-10T00:41:55.011Z,101083.16
2019-06-10T00:43:30.706Z,101076.47
2019-06-10T00:45:08.177Z,101073.55
2019-06-10T00:46:43.079Z,101072.51
2019-06-10T00:48:26.176Z,101063.92
2019-06-10T00:49:54.727Z,101064.03
2019-06-10T00:51:31.400Z,101067.41
2019-06-10T00:53:07.540Z,101059.80
2019-06-10T00:54:42.242Z,101058.36
2019-06-10T00:56:17.498Z,101058.17
2019-06-10T00:57:52.460Z,101061.33
2019-06-10T00:59:27.684Z,101056.30
2019-06-10T01:01:02.949Z,101057.64
2019-06-10T01:02:41.064Z,101057.48
2019-06-10T01:04:16.506Z,101054.48
2019-06-10T01:05:51.926Z,101064.80
2019-06-10T01:07:26.584Z,101054.87
2019-06-10T01:09:02.589Z,101058.96
2019-06-10T01:10:38.739Z,101056.02
2019-06-10T01:12:14.916Z,101051.89
2019-06-10T01:13:50.824Z,101048.51
2019-06-10T01:15:26.203Z,101045.61
2019-06-10T01:17:01.342Z,101043.60
2019-06-10T01:18:38.566Z,101044.78
2019-06-10T01:20:15.683Z,101047.68
2019-06-10T01:21:51.178Z,101039.17
2019-06-10T01:23:26.024Z,101036.70
2019-06-10T01:25:01.767Z,101041.45
2019-06-10T01:26:36.480Z,101041.02
2019-06-10T01:28:14.713Z,101031.89
2019-06-10T01:29:48.085Z,101032.81
2019-06-10T01:31:24.391Z,101032.77
2019-06-10T01:33:01.058Z,101033.25
2019-06-10T01:34:36.130Z,101031.77
2019-06-10T01:36:13.261Z,101034.72
2019-06-10T01:37:47.734Z,101031.20
2019-06-10T01:39:22.754Z,101030.42
2019-06-10T01:40:58.103Z,101024.52
2019-06-10T01:42:32.728Z,101022.20
2019-06-10T01:44:08.460Z,101020.77
2019-06-10T01:45:43.172Z,101022.84
2019-06-10T01:47:18.473Z,101017.19
2019-06-10T01:48:53.107Z,101022.97
2019-06-10T01:50:28.368Z,101014.60
2019-06-10T01:52:03.017Z,101014.55
2019-06-10T01:53:38.272Z,101016.11
2019-06-10T01:55:14.992Z,101016.11
2019-06-10T01:56:51.074Z,101012.73
2019-06-10T01:58:25.955Z,101007.23
2019-06-10T02:00:09.021Z,101010.31
2019-06-10T02:01:45.189Z,101000.20
2019-06-10T02:03:23.700Z,100996.12
2019-06-10T02:04:56.754Z,100987.25
2019-06-10T02:06:31.999Z,100987.55
2019-06-10T02:08:06.736Z,100986.92
2019-06-10T02:09:41.981Z,100988.95
2019-06-10T02:11:18.773Z,100981.79
2019-06-10T02:12:53.767Z,100992.27
2019-06-10T02:14:31.557Z,100982.45
2019-06-10T02:16:07.002Z,100984.02
2019-06-10T02:17:41.840Z,100983.69
2019-06-10T02:19:18.593Z,100983.89
2019-06-10T02:20:53.355Z,100980.02
2019-06-10T02:22:31.672Z,100971.60
2019-06-10T02:24:06.289Z,100967.98
2019-06-10T02:25:42.588Z,100969.95
2019-06-10T02:27:17.470Z,100968.19
2019-06-10T02:28:52.825Z,100967.94
2019-06-10T02:30:39.986Z,100966.59
2019-06-10T02:32:05.327Z,100966.84
2019-06-10T02:33:41.974Z,100963.44
2019-06-10T02:35:27.254Z,100960.15
2019-06-10T02:36:53.911Z,100959.40
2019-06-10T02:38:37.938Z,100944.55
2019-06-10T02:40:06.594Z,100946.77
2019-06-10T02:41:44.585Z,100942.73
2019-06-10T02:43:28.530Z,100940.71
2019-06-10T02:44:57.634Z,100939.28
2019-06-10T02:46:36.206Z,100938.56
2019-06-10T02:48:12.885Z,100937.35
2019-06-10T02:49:57.628Z,100931.20
2019-06-10T02:51:30.209Z,100931.55
2019-06-10T02:53:03.880Z,100927.33
2019-06-10T02:54:37.637Z,100922.55
2019-06-10T02:56:14.639Z,100919.00
2019-06-10T02:57:49.599Z,100920.23
2019-06-10T02:59:27.463Z,100921.27
2019-06-10T03:01:04.191Z,100920.85
2019-06-10T03:02:37.654Z,100921.36
2019-06-10T03:04:13.692Z,100922.20
2019-06-10T03:05:48.625Z,100924.39
2019-06-10T03:07:28.384Z,100916.94
2019-06-10T03:09:03.422Z,100923.92
2019-06-10T03:10:38.952Z,100922.50
2019-06-10T03:12:13.677Z,100924.77
2019-06-10T03:13:48.919Z,100925.94
2019-06-10T03:15:25.144Z,100921.95
2019-06-10T03:17:03.198Z,100928.77
2019-06-10T03:18:37.938Z,100923.80
2019-06-10T03:20:13.193Z,100918.28
2019-06-10T03:21:47.873Z,100913.91
2019-06-10T03:23:26.107Z,100913.75
2019-06-10T03:25:02.781Z,100907.89
2019-06-10T03:26:37.397Z,100906.59
2019-06-10T03:28:12.149Z,100906.47
2019-06-10T03:29:47.368Z,100902.51
2019-06-10T03:31:28.358Z,100905.49
2019-06-10T03:32:58.985Z,100904.95
2019-06-10T03:34:41.494Z,100904.34
2019-06-10T03:36:12.444Z,100903.85
2019-06-10T03:37:47.671Z,100898.09
2019-06-10T03:39:23.872Z,100900.41
2019-06-10T03:41:02.993Z,100896.75
2019-06-10T03:42:38.303Z,100896.03
2019-06-10T03:44:13.339Z,100884.89
2019-06-10T03:45:48.689Z,100893.13
2019-06-10T03:47:24.272Z,100892.04
2019-06-10T03:49:00.277Z,100893.81
2019-06-10T03:50:34.937Z,100890.39
2019-06-10T03:52:10.232Z,100895.28
2019-06-10T03:53:46.068Z,100890.95
2019-06-10T03:55:24.894Z,100896.83
2019-06-10T03:56:57.636Z,100891.02
2019-06-10T03:58:33.035Z,100885.44
2019-06-10T04:00:13.314Z,100885.98
2019-06-10T04:01:44.860Z,100887.66
2019-06-10T04:03:19.595Z,100877.80
2019-06-10T04:04:54.883Z,100861.57
2019-06-10T04:06:29.718Z,100860.04
2019-06-10T04:08:06.241Z,100851.25
2019-06-10T04:09:42.542Z,100852.52
2019-06-10T04:11:17.971Z,100856.89
2019-06-10T04:12:52.686Z,100861.00
2019-06-10T04:14:28.525Z,100856.64
2019-06-10T04:16:04.256Z,100859.89
2019-06-10T04:17:39.495Z,100859.59
2019-06-10T04:19:14.144Z,100861.23
2019-06-10T04:20:49.567Z,100858.27
2019-06-10T04:22:26.584Z,100865.50
2019-06-10T04:24:02.266Z,100871.02
2019-06-10T04:25:42.599Z,100867.66
2019-06-10T04:27:17.742Z,100876.03
2019-06-10T04:28:52.992Z,100876.59
2019-06-10T04:30:29.288Z,100877.41
2019-06-10T04:32:04.182Z,100877.98
2019-06-10T04:33:39.443Z,100879.68
2019-06-10T04:35:14.163Z,100882.31
2019-06-10T04:36:49.395Z,100880.39
2019-06-10T04:38:26.033Z,100876.98
2019-06-10T04:40:02.794Z,100878.03
2019-06-10T04:41:37.446Z,100878.67
2019-06-10T04:43:12.970Z,100881.82
2019-06-10T04:44:49.421Z,100877.38
2019-06-10T04:46:26.401Z,100872.05
2019-06-10T04:48:03.033Z,100870.88
2019-06-10T04:49:38.026Z,100870.39
2019-06-10T04:51:13.110Z,100872.08
2019-06-10T04:52:48.372Z,100868.73
2019-06-10T04:54:24.847Z,100866.69
2019-06-10T04:56:02.703Z,100859.53
2019-06-10T04:57:36.739Z,100857.23
2019-06-10T04:59:13.031Z,100862.42
2019-06-10T05:00:47.695Z,100848.31
2019-06-10T05:02:25.568Z,100854.75
2019-06-10T05:03:59.668Z,100853.75
2019-06-10T05:05:36.885Z,100855.28
2019-06-10T05:07:12.576Z,100864.92
2019-06-10T05:08:47.989Z,100861.03
2019-06-10T05:10:24.095Z,100865.48
2019-06-10T05:11:59.602Z,100868.12
2019-06-10T05:13:34.268Z,100866.70
2019-06-10T05:15:09.763Z,100872.84
2019-06-10T05:16:45.072Z,100881.50
2019-06-10T05:18:23.849Z,100867.37
2019-06-10T05:19:56.890Z,100865.99
2019-06-10T05:21:33.774Z,100869.34
2019-06-10T05:23:08.550Z,100866.41
2019-06-10T05:24:43.781Z,100858.64
2019-06-10T05:26:19.911Z,100860.09
2019-06-10T05:27:55.368Z,100857.55
2019-06-10T05:29:31.229Z,100854.19
2019-06-10T05:31:06.560Z,100850.48
2019-06-10T05:32:43.191Z,100856.19
2019-06-10T05:34:18.253Z,100847.69
2019-06-10T05:35:53.035Z,100846.78
2019-06-10T05:37:29.351Z,100846.73
2019-06-10T05:39:05.778Z,100846.45
2019-06-10T05:40:42.756Z,100840.78
2019-06-10T05:42:17.577Z,100841.81
2019-06-10T05:43:52.871Z,100835.62
2019-06-10T05:45:29.011Z,100846.57
2019-06-10T05:47:04.428Z,100837.13
2019-06-10T05:48:39.095Z,100842.36
2019-06-10T05:50:14.632Z,100845.87
2019-06-10T05:51:49.249Z,100841.60
2019-06-10T05:53:25.053Z,100835.43
2019-06-10T05:55:02.945Z,100837.83
2019-06-10T05:56:37.898Z,100837.64
2019-06-10T05:58:12.976Z,100839.52
2019-06-10T05:59:48.320Z,100838.52
2019-06-10T06:01:24.273Z,100838.72
2019-06-10T06:02:59.880Z,100843.09
2019-06-10T06:04:36.098Z,100850.02
2019-06-10T06:06:12.510Z,100855.75
2019-06-10T06:08:01.298Z,100854.72
2019-06-10T06:09:25.112Z,100851.30
2019-06-10T06:10:59.844Z,100850.20
2019-06-10T06:12:35.769Z,100849.98
2019-06-10T06:14:13.022Z,100846.98
2019-06-10T06:15:47.448Z,100843.58
2019-06-10T06:17:23.589Z,100845.31
2019-06-10T06:18:58.893Z,100844.42
2019-06-10T06:20:35.759Z,100840.37
2019-06-10T06:22:12.598Z,100837.13
2019-06-10T06:23:47.804Z,100842.91
2019-06-10T06:25:24.216Z,100843.46
2019-06-10T06:26:58.948Z,100835.37
2019-06-10T06:28:35.988Z,100834.70
2019-06-10T06:30:16.245Z,100826.09
2019-06-10T06:31:47.822Z,100818.05
2019-06-10T06:33:22.455Z,100808.27
2019-06-10T06:34:57.708Z,100803.13
2019-06-10T06:36:34.696Z,100810.41
2019-06-10T06:38:09.306Z,100805.30
2019-06-10T06:39:44.019Z,100810.95
2019-06-10T06:41:19.236Z,100812.79
2019-06-10T06:42:53.903Z,100813.81
2019-06-10T06:44:29.635Z,100814.17
2019-06-10T06:46:04.275Z,100812.03
2019-06-10T06:47:39.519Z,100811.83
2019-06-10T06:49:14.220Z,100816.56
2019-06-10T06:51:01.984Z,100807.38
2019-06-10T06:52:46.662Z,100806.55
2019-06-10T06:54:03.375Z,100804.84
2019-06-10T06:55:39.761Z,100810.48
2019-06-10T06:57:15.498Z,100806.31
2019-06-10T06:58:52.247Z,100802.72
2019-06-10T07:00:51.396Z,100805.30
2019-06-10T07:02:12.381Z,100806.78
2019-06-10T07:03:47.068Z,100807.53
2019-06-10T07:05:22.942Z,100803.45
2019-06-10T07:06:57.613Z,100793.79
2019-06-10T07:08:36.246Z,100793.08
2019-06-10T07:10:12.249Z,100789.66
2019-06-10T07:11:47.688Z,100789.42
2019-06-10T07:13:22.424Z,100784.70
2019-06-10T07:14:57.641Z,100787.49
2019-06-10T07:16:34.589Z,100784.85
2019-06-10T07:18:09.569Z,100781.39
2019-06-10T07:19:45.894Z,100793.08
2019-06-10T07:21:22.811Z,100787.92
2019-06-10T07:22:57.620Z,100789.47
2019-06-10T07:24:36.014Z,100797.39
2019-06-10T07:26:09.207Z,100795.92
2019-06-10T07:27:46.983Z,100793.36
2019-06-10T07:29:22.568Z,100786.83
2019-06-10T07:30:57.992Z,100790.25
2019-06-10T07:32:34.294Z,100790.02
2019-06-10T07:34:09.569Z,100774.70
2019-06-10T07:35:45.484Z,100776.50
2019-06-10T07:37:22.996Z,100777.52
2019-06-10T07:38:57.356Z,100791.51
2019-06-10T07:40:34.400Z,100794.75
2019-06-10T07:42:08.941Z,100795.93
2019-06-10T07:43:49.417Z,100795.33
2019-06-10T07:45:22.163Z,100804.22
2019-06-10T07:46:57.527Z,100800.63
2019-06-10T07:48:34.477Z,100794.80
2019-06-10T07:50:12.014Z,100789.64
2019-06-10T07:51:46.585Z,100789.74
2019-06-10T07:53:22.339Z,100800.33
2019-06-10T07:54:57.216Z,100792.94
2019-06-10T07:56:37.253Z,100799.86
2019-06-10T07:58:08.937Z,100812.29
2019-06-10T07:59:45.776Z,100813.73
2019-06-10T08:01:23.034Z,100808.81
2019-06-10T08:02:57.759Z,100810.36
2019-06-10T08:04:33.570Z,100814.32
2019-06-10T08:06:09.476Z,100804.80
2019-06-10T08:07:47.166Z,100809.05
2019-06-10T08:09:22.766Z,100802.73
2019-06-10T08:10:57.901Z,100811.72
2019-06-10T08:12:33.161Z,100803.55
2019-06-10T08:14:08.784Z,100800.52
2019-06-10T08:15:45.974Z,100792.38
2019-06-10T08:17:22.394Z,100791.71
2019-06-10T08:19:22.261Z,100786.35
2019-06-10T08:20:47.477Z,100784.78
2019-06-10T08:22:34.313Z,100781.70
2019-06-10T08:23:59.448Z,100784.57
2019-06-10T08:25:36.833Z,100776.75
2019-06-10T08:27:12.051Z,100778.53
2019-06-10T08:28:48.329Z,100777.46
2019-06-10T08:30:27.547Z,100773.72
2019-06-10T08:32:03.300Z,100781.22
2019-06-10T08:33:38.938Z,100785.66
2019-06-10T08:35:14.214Z,100781.80
2019-06-10T08:36:50.717Z,100781.65
2019-06-10T08:38:27.318Z,100778.52
2019-06-10T08:40:03.792Z,100775.56
2019-06-10T08:41:38.936Z,100772.19
2019-06-10T08:43:13.757Z,100773.09
2019-06-10T08:44:48.982Z,100777.03
2019-06-10T08:46:23.683Z,100776.82
2019-06-10T08:47:59.066Z,100770.55
2019-06-10T08:49:33.737Z,100769.46
2019-06-10T08:51:08.949Z,100772.98
2019-06-10T08:52:53.774Z,100772.80
2019-06-10T08:54:23.268Z,100776.45
2019-06-10T08:55:56.910Z,100764.18
2019-06-10T08:57:33.482Z,100758.62
2019-06-10T08:59:08.674Z,100769.19
2019-06-10T09:00:46.259Z,100765.38
2019-06-10T09:02:22.879Z,100760.15
2019-06-10T09:03:57.248Z,100760.75
2019-06-10T09:05:32.391Z,100762.11
2019-06-10T09:07:07.768Z,100761.51
2019-06-10T09:08:46.422Z,100758.78
2019-06-10T09:10:22.525Z,100751.70
2019-06-10T09:11:56.505Z,100750.75
2019-06-10T09:13:33.607Z,100750.40
2019-06-10T09:15:08.102Z,100752.37
2019-06-10T09:16:46.074Z,100741.94
2019-06-10T09:18:22.653Z,100756.02
2019-06-10T09:19:56.664Z,100751.19
2019-06-10T09:21:33.074Z,100743.70
2019-06-10T09:23:21.030Z,100742.74
2019-06-10T09:24:48.730Z,100745.09
2019-06-10T09:26:22.894Z,100744.03
2019-06-10T09:27:57.781Z,100740.49
2019-06-10T09:29:33.042Z,100737.65
2019-06-10T09:31:07.653Z,100741.80
2019-06-10T09:32:48.439Z,100745.91
2019-06-10T09:34:19.251Z,100739.50
2019-06-10T09:35:55.129Z,100738.30
2019-06-10T09:37:31.927Z,100740.27
2019-06-10T09:39:09.554Z,100730.20
2019-06-10T09:40:53.611Z,100736.62
2019-06-10T09:42:27.147Z,100740.78
2019-06-10T09:44:03.299Z,100738.63
2019-06-10T09:45:38.658Z,100740.71
2019-06-10T09:47:14.616Z,100737.53
2019-06-10T09:48:53.621Z,100737.05
2019-06-10T09:50:41.227Z,100736.22
2019-06-10T09:52:17.489Z,100730.33
2019-06-10T09:54:02.339Z,100725.66
2019-06-10T09:55:33.324Z,100721.97
2019-06-10T09:57:08.116Z,100720.52
2019-06-10T09:58:46.062Z,100712.67
2019-06-10T10:00:33.140Z,100706.56
2019-06-10T10:02:08.552Z,100696.42
2019-06-10T10:03:49.179Z,100705.55
2019-06-10T10:05:23.377Z,100697.59
2019-06-10T10:06:57.642Z,100701.00
2019-06-10T10:08:35.970Z,100698.63
2019-06-10T10:10:12.849Z,100699.33
2019-06-10T10:11:49.272Z,100698.48
2019-06-10T10:13:24.800Z,100698.99
2019-06-10T10:15:16.329Z,100695.70
2019-06-10T10:16:36.643Z,100703.50
2019-06-10T10:18:13.382Z,100705.45
2019-06-10T10:19:50.310Z,100705.95
2019-06-10T10:21:25.985Z,100705.86
2019-06-10T10:23:02.658Z,100698.20
2019-06-10T10:24:37.679Z,100697.89
2019-06-10T10:26:14.176Z,100698.23
2019-06-10T10:27:53.169Z,100689.52
2019-06-10T10:29:25.873Z,100687.23
2019-06-10T10:31:03.571Z,100685.92
2019-06-10T10:32:37.717Z,100685.22
2019-06-10T10:34:13.634Z,100686.55
2019-06-10T10:35:49.316Z,100683.95
2019-06-10T10:37:25.336Z,100682.01
2019-06-10T10:39:02.287Z,100689.61
2019-06-10T10:40:38.629Z,100690.20
2019-06-10T10:42:13.285Z,100688.91
2019-06-10T10:43:51.219Z,100679.56
2019-06-10T10:45:25.499Z,100683.19
2019-06-10T10:47:03.493Z,100674.41
2019-06-10T10:48:37.124Z,100671.55
2019-06-10T10:50:13.892Z,100669.52
2019-06-10T10:51:49.062Z,100664.55
2019-06-10T10:53:24.425Z,100662.23
2019-06-10T10:54:59.096Z,100668.56
2019-06-10T10:56:34.349Z,100665.44
2019-06-10T10:58:09.141Z,100664.01
2019-06-10T10:59:45.087Z,100665.45
2019-06-10T11:01:23.629Z,100663.34
2019-06-10T11:02:57.772Z,100663.72
2019-06-10T11:04:32.986Z,100648.72
2019-06-10T11:06:08.394Z,100647.50
2019-06-10T11:07:44.476Z,100649.70
2019-06-10T11:09:23.145Z,100651.84
2019-06-10T11:11:01.000Z,100649.11
2019-06-10T11:12:35.859Z,100655.56
2019-06-10T11:14:10.537Z,100657.75
2019-06-10T11:15:47.286Z,100648.50
2019-06-10T11:17:22.683Z,100643.09
2019-06-10T11:18:58.186Z,100637.37
2019-06-10T11:20:33.679Z,100636.15
2019-06-10T11:22:09.101Z,100633.87
2019-06-10T11:23:43.948Z,100645.49
2019-06-10T11:25:19.447Z,100634.32
2019-06-10T11:26:56.489Z,100635.79
2019-06-10T11:28:32.188Z,100636.99
2019-06-10T11:30:07.581Z,100630.73
2019-06-10T11:31:42.968Z,100641.97
2019-06-10T11:33:17.724Z,100640.22
2019-06-10T11:34:56.745Z,100644.53
2019-06-10T11:36:29.467Z,100641.39
2019-06-10T11:38:04.762Z,100644.00
2019-06-10T11:39:39.524Z,100640.50
2019-06-10T11:41:14.759Z,100636.55
2019-06-10T11:42:50.525Z,100643.23
2019-06-10T11:44:26.407Z,100645.28
2019-06-10T11:46:06.758Z,100641.30
2019-06-10T11:47:38.002Z,100643.53
2019-06-10T11:49:12.734Z,100640.02
2019-06-10T11:50:49.151Z,100635.16
2019-06-10T11:52:23.840Z,100635.97
2019-06-10T11:53:59.162Z,100641.47
2019-06-10T11:55:33.916Z,100634.83
2019-06-10T11:57:09.192Z,100630.27
2019-06-10T11:58:43.929Z,100630.75
2019-06-10T12:00:19.382Z,100628.58
2019-06-10T12:01:59.205Z,100632.25
2019-06-10T12:03:30.950Z,100620.53
2019-06-10T12:05:06.125Z,100615.85
2019-06-10T12:06:42.626Z,100621.14
2019-06-10T12:08:17.393Z,100614.84
2019-06-10T12:09:55.067Z,100607.34
2019-06-10T12:11:28.995Z,100621.20
2019-06-10T12:13:07.248Z,100619.83
2019-06-10T12:14:43.160Z,100611.18
2019-06-10T12:17:14.987Z,100618.32
2019-06-10T12:18:00.767Z,100622.25
2019-06-10T12:19:34.105Z,100613.52
2019-06-10T12:21:08.197Z,100619.03
2019-06-10T12:22:43.413Z,100614.20
2019-06-10T12:24:23.046Z,100611.38
2019-06-10T12:25:58.237Z,100616.59
2019-06-10T12:27:32.917Z,100614.88
2019-06-10T12:29:12.240Z,100619.28
2019-06-10T12:30:44.530Z,100610.41
2019-06-10T12:32:22.387Z,100609.63
2019-06-10T12:33:57.629Z,100616.05
2019-06-10T12:35:33.444Z,100600.98
2019-06-10T12:37:12.978Z,100602.36
2019-06-10T12:38:45.485Z,100594.52
2019-06-10T12:40:20.394Z,100597.64
2019-06-10T12:41:57.986Z,100588.64
2019-06-10T12:43:32.560Z,100594.92
2019-06-10T12:45:08.929Z,100589.79
2019-06-10T12:46:43.549Z,100582.95
2019-06-10T12:48:18.778Z,100586.69
2019-06-10T12:49:55.725Z,100586.06
2019-06-10T12:51:32.300Z,100583.78
2019-06-10T12:53:07.400Z,100578.99
2019-06-10T12:54:42.766Z,100570.19
2019-06-10T12:56:18.476Z,100566.30
2019-06-10T12:57:54.382Z,100561.63
2019-06-10T12:59:29.436Z,100553.00
2019-06-10T13:01:06.208Z,100540.34
2019-06-10T13:02:42.746Z,100540.73
2019-06-10T13:04:17.998Z,100540.24
2019-06-10T13:05:53.519Z,100535.20
2019-06-10T13:07:29.117Z,100539.69
2019-06-10T13:09:06.479Z,100530.78
2019-06-10T13:10:43.078Z,100534.53
2019-06-10T13:12:17.787Z,100532.50
2019-06-10T13:13:53.180Z,100525.65
2019-06-10T13:15:28.889Z,100528.06
2019-06-10T13:17:05.781Z,100531.33
2019-06-10T13:18:40.522Z,100531.84
2019-06-10T13:20:15.812Z,100534.27
2019-06-10T13:21:52.783Z,100544.58
2019-06-10T13:23:31.903Z,100544.38
2019-06-10T13:25:04.794Z,100540.34
2019-06-10T13:26:40.003Z,100531.33
2019-06-10T13:28:14.704Z,100536.42
2019-06-10T13:29:53.239Z,100535.37
2019-06-10T13:31:28.371Z,100536.59
2019-06-10T13:33:10.933Z,100529.53
2019-06-10T13:34:42.761Z,100530.62
2019-06-10T13:36:18.082Z,100532.89
2019-06-10T13:37:52.911Z,100528.27
2019-06-10T13:39:28.277Z,100518.05
2019-06-10T13:41:04.270Z,100513.45
2019-06-10T13:42:42.216Z,100515.33
2019-06-10T13:44:16.794Z,100515.31
2019-06-10T13:45:53.154Z,100505.11
2019-06-10T13:47:29.447Z,100500.12
2019-06-10T13:49:08.625Z,100496.14
2019-06-10T13:50:42.356Z,100491.05
2019-06-10T13:52:18.485Z,100498.18
2019-06-10T13:53:53.820Z,100485.52
2019-06-10T13:55:29.184Z,100491.95
2019-06-10T13:57:06.603Z,100490.38
2019-06-10T13:58:45.071Z,100483.81
2019-06-10T14:00:18.034Z,100490.41
2019-06-10T14:01:53.343Z,100493.88
2019-06-10T14:03:27.964Z,100496.91
2019-06-10T14:05:10.315Z,100496.12
2019-06-10T14:06:47.050Z,100494.95
2019-06-10T14:08:16.538Z,100492.18
2019-06-10T14:09:51.292Z,100486.38
2019-06-10T14:11:29.858Z,100483.59
2019-06-10T14:13:03.982Z,100478.33
2019-06-10T14:14:42.388Z,100479.72
2019-06-10T14:16:16.246Z,100474.25
2019-06-10T14:17:52.735Z,100481.23
2019-06-10T14:19:27.488Z,100476.17
2019-06-10T14:21:06.637Z,100476.02
2019-06-10T14:22:39.130Z,100479.36
2019-06-10T14:24:16.165Z,100468.47
2019-06-10T14:25:52.648Z,100465.25
2019-06-10T14:27:27.689Z,100466.39
2019-06-10T14:29:03.888Z,100478.22
2019-06-10T14:30:39.289Z,100474.03
2019-06-10T14:32:15.654Z,100469.78
2019-06-10T14:33:53.261Z,100463.54
2019-06-10T14:35:27.552Z,100465.84
2019-06-10T14:37:03.754Z,100461.44
2019-06-10T14:38:38.468Z,100460.86
2019-06-10T14:40:20.922Z,100459.64
2019-06-10T14:41:52.279Z,100468.94
2019-06-10T14:43:27.692Z,100473.87
2019-06-10T14:45:02.321Z,100482.58
2019-06-10T14:46:37.565Z,100483.47
2019-06-10T14:48:15.653Z,100482.88
2019-06-10T14:49:49.138Z,100481.15
2019-06-10T14:51:23.781Z,100470.16
2019-06-10T14:52:59.095Z,100462.89
2019-06-10T14:54:33.753Z,100453.22
2019-06-10T14:56:09.828Z,100455.69
2019-06-10T14:57:45.301Z,100462.68
2019-06-10T14:59:22.398Z,100454.21
2019-06-10T15:00:56.872Z,100460.70
2019-06-10T15:02:33.437Z,100462.05
2019-06-10T15:04:08.255Z,100465.12
2019-06-10T15:05:43.495Z,100456.19
2019-06-10T15:07:18.133Z,100462.72
2019-06-10T15:08:54.412Z,100464.37
2019-06-10T15:10:29.075Z,100476.69
2019-06-10T15:12:04.636Z,100476.53
2019-06-10T15:13:39.304Z,100482.64
2019-06-10T15:15:16.250Z,100486.30
2019-06-10T15:16:53.476Z,100478.34
2019-06-10T15:18:28.014Z,100483.08
2019-06-10T15:20:03.698Z,100477.08
2019-06-10T15:21:40.213Z,100487.81
2019-06-10T15:23:18.476Z,100490.63
2019-06-10T15:24:53.252Z,100490.28
2019-06-10T15:26:28.085Z,100490.36
2019-06-10T15:28:03.384Z,100486.41
2019-06-10T15:29:39.335Z,100487.47
2019-06-10T15:31:16.459Z,100485.10
2019-06-10T15:32:52.428Z,100483.44
2019-06-10T15:34:28.160Z,100474.59
2019-06-10T15:36:02.874Z,100473.68
2019-06-10T15:37:38.376Z,100473.34
2019-06-10T15:39:16.364Z,100473.62
2019-06-10T15:40:52.767Z,100471.59
2019-06-10T15:42:26.564Z,100469.05
2019-06-10T15:44:02.563Z,100469.09
2019-06-10T15:45:37.730Z,100472.08
2019-06-10T15:47:16.105Z,100470.23
2019-06-10T15:48:49.436Z,100461.88
2019-06-10T15:50:27.531Z,100456.77
2019-06-10T15:52:03.308Z,100453.30
2019-06-10T15:53:38.088Z,100451.83
2019-06-10T15:55:23.966Z,100445.17
2019-06-10T15:56:55.784Z,100443.48
2019-06-10T15:58:26.313Z,100438.30
2019-06-10T16:00:04.264Z,100436.58
2019-06-10T16:01:39.268Z,100443.53
2019-06-10T16:03:17.133Z,100439.42
2019-06-10T16:04:52.697Z,100437.80
2019-06-10T16:06:28.012Z,100442.75
2019-06-10T16:08:02.731Z,100442.27
2019-06-10T16:09:38.064Z,100445.12
2019-06-10T16:11:16.300Z,100446.61
2019-06-10T16:12:49.689Z,100445.36
2019-06-10T16:14:25.482Z,100439.18
2019-06-10T16:16:03.369Z,100446.19
2019-06-10T16:17:38.400Z,100440.16
2019-06-10T16:19:15.082Z,100433.69
2019-06-10T16:20:52.817Z,100443.78
2019-06-10T16:22:27.001Z,100438.91
2019-06-10T16:24:02.808Z,100431.84
2019-06-10T16:25:38.225Z,100437.88
2019-06-10T16:27:14.223Z,100432.06
2019-06-10T16:28:49.472Z,100430.79
2019-06-10T16:30:25.926Z,100436.89
2019-06-10T16:32:02.523Z,100431.88
2019-06-10T16:33:37.297Z,100438.20
2019-06-10T16:35:13.109Z,100440.47
2019-06-10T16:36:47.820Z,100449.12
2019-06-10T16:38:25.462Z,100451.18
2019-06-10T16:39:59.455Z,100448.00
2019-06-10T16:41:34.883Z,100450.98
2019-06-10T16:43:09.598Z,100447.67
2019-06-10T16:44:44.857Z,100451.68
2019-06-10T16:46:20.301Z,100448.50
2019-06-10T16:47:55.603Z,100447.02
2019-06-10T16:49:32.508Z,100430.23
2019-06-10T16:51:07.139Z,100440.33
2019-06-10T16:52:43.084Z,100436.61
2019-06-10T16:54:19.532Z,100433.59
2019-06-10T16:55:54.193Z,100427.18
2019-06-10T16:57:30.125Z,100423.11
2019-06-10T16:59:04.908Z,100433.41
2019-06-10T17:00:40.115Z,100425.30
2019-06-10T17:02:14.748Z,100431.64
2019-06-10T17:03:52.444Z,100426.67
2019-06-10T17:05:27.588Z,100429.43
2019-06-10T17:07:03.536Z,100428.37
2019-06-10T17:08:38.217Z,100426.01
2019-06-10T17:10:24.016Z,100423.56
2019-06-10T17:12:02.217Z,100424.22
2019-06-10T17:13:36.580Z,100428.49
2019-06-10T17:15:12.999Z,100429.94
2019-06-10T17:16:47.802Z,100431.66
2019-06-10T17:18:24.707Z,100433.42
2019-06-10T17:19:59.382Z,100435.36
2019-06-10T17:21:34.854Z,100425.55
2019-06-10T17:23:26.620Z,100429.43
2019-06-10T17:24:59.193Z,100434.00
2019-06-10T17:26:37.808Z,100440.23
2019-06-10T17:28:18.309Z,100432.78
2019-06-10T17:29:47.080Z,100433.27
2019-06-10T17:31:25.778Z,100432.09
2019-06-10T17:32:58.701Z,100440.69
2019-06-10T17:34:34.200Z,100433.73
2019-06-10T17:36:08.918Z,100435.98
2019-06-10T17:37:44.128Z,100430.66
2019-06-10T17:39:18.867Z,100436.55
2019-06-10T17:40:54.178Z,100437.05
2019-06-10T17:42:34.553Z,100431.67
2019-06-10T17:44:06.303Z,100432.14
2019-06-10T17:45:42.198Z,100430.92
2019-06-10T17:47:18.494Z,100433.40
2019-06-10T17:48:53.153Z,100435.19
2019-06-10T17:50:28.487Z,100427.94
2019-06-10T17:52:03.445Z,100427.01
2019-06-10T17:53:38.682Z,100432.70
2019-06-10T17:55:13.820Z,100437.28
2019-06-10T17:56:49.037Z,100440.63
2019-06-10T17:58:39.352Z,100437.52
2019-06-10T18:00:07.327Z,100440.16
2019-06-10T18:01:38.700Z,100430.16
2019-06-10T18:03:14.209Z,100432.05
2019-06-10T18:04:49.177Z,100440.02
2019-06-10T18:06:25.895Z,100438.80
2019-06-10T18:08:02.334Z,100436.95
2019-06-10T18:09:37.801Z,100438.27
2019-06-10T18:11:13.021Z,100435.98
2019-06-10T18:12:48.767Z,100434.36
2019-06-10T18:14:24.530Z,100440.14